sensor_id;sensor_type;location;lat;lon;timestamp;pressure;altitude;pressure_sealevel;temperature
15607;BMP180;7865;50.918;4.510;2023-03-24T00:04:55;99331.00;;;11.70
15607;BMP180;7865;50.918;4.510;2023-03-24T00:09:59;99329.00;;;11.70
15607;BMP180;7865;50.918;4.510;2023-03-24T00:15:01;99325.00;;;11.70
15607;BMP180;7865;50.918;4.510;2023-03-24T00:20:08;99325.00;;;11.70
15607;BMP180;7865;50.918;4.510;2023-03-24T00:25:18;99304.00;;;11.70
15607;BMP180;7865;50.918;4.510;2023-03-24T00:30:20;99314.00;;;11.70
15607;BMP180;7865;50.918;4.510;2023-03-24T00:35:23;99300.00;;;11.70
15607;BMP180;7865;50.918;4.510;2023-03-24T00:40:26;99295.00;;;11.80
15607;BMP180;7865;50.918;4.510;2023-03-24T00:45:29;99295.00;;;11.90
15607;BMP180;7865;50.918;4.510;2023-03-24T00:50:35;99295.00;;;11.90
15607;BMP180;7865;50.918;4.510;2023-03-24T00:55:37;99270.00;;;11.90
15607;BMP180;7865;50.918;4.510;2023-03-24T01:00:40;99285.00;;;12.00
15607;BMP180;7865;50.918;4.510;2023-03-24T01:05:43;99283.00;;;12.00
15607;BMP180;7865;50.918;4.510;2023-03-24T01:10:49;99270.00;;;12.00
15607;BMP180;7865;50.918;4.510;2023-03-24T01:15:52;99277.00;;;12.10
15607;BMP180;7865;50.918;4.510;2023-03-24T01:20:55;99280.00;;;12.10
15607;BMP180;7865;50.918;4.510;2023-03-24T01:25:57;99273.00;;;12.20
15607;BMP180;7865;50.918;4.510;2023-03-24T01:30:59;99260.00;;;12.30
15607;BMP180;7865;50.918;4.510;2023-03-24T01:36:01;99277.00;;;12.40
15607;BMP180;7865;50.918;4.510;2023-03-24T01:41:05;99270.00;;;12.60
15607;BMP180;7865;50.918;4.510;2023-03-24T01:46:20;99288.00;;;12.70
15607;BMP180;7865;50.918;4.510;2023-03-24T01:51:33;99288.00;;;12.80
15607;BMP180;7865;50.918;4.510;2023-03-24T01:56:39;99305.00;;;12.80
15607;BMP180;7865;50.918;4.510;2023-03-24T02:01:43;99323.00;;;12.70
15607;BMP180;7865;50.918;4.510;2023-03-24T02:07:22;99324.00;;;12.70
15607;BMP180;7865;50.918;4.510;2023-03-24T02:12:28;99319.00;;;12.50
15607;BMP180;7865;50.918;4.510;2023-03-24T02:45:26;99389.00;;;10.90
15607;BMP180;7865;50.918;4.510;2023-03-24T02:50:53;99406.00;;;10.60
15607;BMP180;7865;50.918;4.510;2023-03-24T02:56:12;99406.00;;;10.50
15607;BMP180;7865;50.918;4.510;2023-03-24T03:01:25;99428.00;;;10.40
15607;BMP180;7865;50.918;4.510;2023-03-24T03:06:56;99465.00;;;10.40
15607;BMP180;7865;50.918;4.510;2023-03-24T03:12:00;99480.00;;;10.40
15607;BMP180;7865;50.918;4.510;2023-03-24T03:17:18;99491.00;;;10.40
15607;BMP180;7865;50.918;4.510;2023-03-24T03:22:25;99495.00;;;10.40
15607;BMP180;7865;50.918;4.510;2023-03-24T03:27:32;99500.00;;;10.30
15607;BMP180;7865;50.918;4.510;2023-03-24T03:32:46;99512.00;;;10.10
15607;BMP180;7865;50.918;4.510;2023-03-24T03:38:17;99513.00;;;10.20
15607;BMP180;7865;50.918;4.510;2023-03-24T03:43:22;99511.00;;;10.10
15607;BMP180;7865;50.918;4.510;2023-03-24T03:48:25;99516.00;;;10.00
15607;BMP180;7865;50.918;4.510;2023-03-24T03:53:33;99526.00;;;10.00
15607;BMP180;7865;50.918;4.510;2023-03-24T03:58:37;99542.00;;;10.00
15607;BMP180;7865;50.918;4.510;2023-03-24T04:15:34;99580.00;;;10.20
15607;BMP180;7865;50.918;4.510;2023-03-24T04:21:23;99582.00;;;10.20
15607;BMP180;7865;50.918;4.510;2023-03-24T04:26:51;99597.00;;;10.20
15607;BMP180;7865;50.918;4.510;2023-03-24T04:37:14;99602.00;;;10.20
15607;BMP180;7865;50.918;4.510;2023-03-24T04:42:45;99606.00;;;10.20
15607;BMP180;7865;50.918;4.510;2023-03-24T04:47:52;99616.00;;;10.20
15607;BMP180;7865;50.918;4.510;2023-03-24T04:53:16;99628.00;;;10.20
15607;BMP180;7865;50.918;4.510;2023-03-24T04:58:20;99628.00;;;10.20
15607;BMP180;7865;50.918;4.510;2023-03-24T05:03:23;99635.00;;;10.10
15607;BMP180;7865;50.918;4.510;2023-03-24T05:08:26;99632.00;;;9.90
15607;BMP180;7865;50.918;4.510;2023-03-24T05:13:28;99635.00;;;9.70
15607;BMP180;7865;50.918;4.510;2023-03-24T05:18:34;99648.00;;;9.50
15607;BMP180;7865;50.918;4.510;2023-03-24T05:23:37;99655.00;;;9.30
15607;BMP180;7865;50.918;4.510;2023-03-24T05:28:39;99645.00;;;9.20
15607;BMP180;7865;50.918;4.510;2023-03-24T05:33:41;99647.00;;;9.10
15607;BMP180;7865;50.918;4.510;2023-03-24T05:38:48;99651.00;;;9.10
15607;BMP180;7865;50.918;4.510;2023-03-24T05:43:50;99649.00;;;9.10
15607;BMP180;7865;50.918;4.510;2023-03-24T05:48:53;99647.00;;;9.10
15607;BMP180;7865;50.918;4.510;2023-03-24T05:53:57;99655.00;;;9.20
15607;BMP180;7865;50.918;4.510;2023-03-24T05:59:05;99658.00;;;9.30
15607;BMP180;7865;50.918;4.510;2023-03-24T06:04:26;99671.00;;;9.40
15607;BMP180;7865;50.918;4.510;2023-03-24T06:09:38;99687.00;;;9.50
15607;BMP180;7865;50.918;4.510;2023-03-24T06:14:45;99685.00;;;9.50
15607;BMP180;7865;50.918;4.510;2023-03-24T06:19:48;99677.00;;;9.70
15607;BMP180;7865;50.918;4.510;2023-03-24T06:25:12;99690.00;;;9.70
15607;BMP180;7865;50.918;4.510;2023-03-24T06:30:21;99688.00;;;9.70
15607;BMP180;7865;50.918;4.510;2023-03-24T06:35:24;99695.00;;;10.00
15607;BMP180;7865;50.918;4.510;2023-03-24T06:40:39;99683.00;;;10.40
15607;BMP180;7865;50.918;4.510;2023-03-24T06:45:43;99693.00;;;10.70
15607;BMP180;7865;50.918;4.510;2023-03-24T06:50:53;99695.00;;;10.90
15607;BMP180;7865;50.918;4.510;2023-03-24T06:55:56;99704.00;;;11.40
15607;BMP180;7865;50.918;4.510;2023-03-24T07:01:01;99707.00;;;11.80
15607;BMP180;7865;50.918;4.510;2023-03-24T07:06:08;99710.00;;;11.70
15607;BMP180;7865;50.918;4.510;2023-03-24T07:11:11;99721.00;;;11.70
15607;BMP180;7865;50.918;4.510;2023-03-24T07:16:20;99725.00;;;11.60
15607;BMP180;7865;50.918;4.510;2023-03-24T07:21:32;99724.00;;;12.10
15607;BMP180;7865;50.918;4.510;2023-03-24T07:26:34;99722.00;;;12.90
15607;BMP180;7865;50.918;4.510;2023-03-24T07:31:56;99731.00;;;13.60
15607;BMP180;7865;50.918;4.510;2023-03-24T07:37:00;99728.00;;;13.30
15607;BMP180;7865;50.918;4.510;2023-03-24T07:42:03;99745.00;;;13.80
15607;BMP180;7865;50.918;4.510;2023-03-24T07:47:24;99743.00;;;13.70
15607;BMP180;7865;50.918;4.510;2023-03-24T07:52:29;99747.00;;;13.90
15607;BMP180;7865;50.918;4.510;2023-03-24T07:57:32;99749.00;;;13.40
15607;BMP180;7865;50.918;4.510;2023-03-24T08:02:41;99749.00;;;14.00
15607;BMP180;7865;50.918;4.510;2023-03-24T08:08:12;99753.00;;;14.20
15607;BMP180;7865;50.918;4.510;2023-03-24T08:13:14;99756.00;;;14.10
15607;BMP180;7865;50.918;4.510;2023-03-24T08:18:21;99745.00;;;14.60
15607;BMP180;7865;50.918;4.510;2023-03-24T08:23:24;99763.00;;;14.60
15607;BMP180;7865;50.918;4.510;2023-03-24T08:28:26;99762.00;;;14.50
15607;BMP180;7865;50.918;4.510;2023-03-24T08:33:28;99765.00;;;15.20
15607;BMP180;7865;50.918;4.510;2023-03-24T08:38:31;99755.00;;;15.00
15607;BMP180;7865;50.918;4.510;2023-03-24T08:43:35;99766.00;;;15.20
15607;BMP180;7865;50.918;4.510;2023-03-24T08:48:40;99788.00;;;15.80
15607;BMP180;7865;50.918;4.510;2023-03-24T08:53:43;99770.00;;;15.70
15607;BMP180;7865;50.918;4.510;2023-03-24T08:58:46;99776.00;;;15.80
15607;BMP180;7865;50.918;4.510;2023-03-24T09:03:49;99785.00;;;16.50
15607;BMP180;7865;50.918;4.510;2023-03-24T09:08:52;99786.00;;;16.50
15607;BMP180;7865;50.918;4.510;2023-03-24T09:13:54;99796.00;;;16.40
15607;BMP180;7865;50.918;4.510;2023-03-24T09:18:56;99789.00;;;16.30
15607;BMP180;7865;50.918;4.510;2023-03-24T09:23:58;99791.00;;;16.30
15607;BMP180;7865;50.918;4.510;2023-03-24T09:29:02;99770.00;;;17.00
15607;BMP180;7865;50.918;4.510;2023-03-24T09:34:04;99787.00;;;18.10
15607;BMP180;7865;50.918;4.510;2023-03-24T09:39:06;99780.00;;;17.00
15607;BMP180;7865;50.918;4.510;2023-03-24T09:44:20;99787.00;;;17.00
15607;BMP180;7865;50.918;4.510;2023-03-24T09:49:28;99791.00;;;16.70
15607;BMP180;7865;50.918;4.510;2023-03-24T09:54:41;99802.00;;;16.70
15607;BMP180;7865;50.918;4.510;2023-03-24T09:59:45;99793.00;;;16.30
15607;BMP180;7865;50.918;4.510;2023-03-24T10:04:48;99805.00;;;16.20
15607;BMP180;7865;50.918;4.510;2023-03-24T10:09:58;99813.00;;;16.90
15607;BMP180;7865;50.918;4.510;2023-03-24T10:15:06;99818.00;;;17.30
15607;BMP180;7865;50.918;4.510;2023-03-24T10:30:52;99803.00;;;17.00
15607;BMP180;7865;50.918;4.510;2023-03-24T10:36:09;99802.00;;;18.10
15607;BMP180;7865;50.918;4.510;2023-03-24T10:41:19;99798.00;;;18.70
15607;BMP180;7865;50.918;4.510;2023-03-24T10:46:27;99805.00;;;18.90
15607;BMP180;7865;50.918;4.510;2023-03-24T10:51:32;99800.00;;;20.00
15607;BMP180;7865;50.918;4.510;2023-03-24T10:56:39;99801.00;;;18.00
15607;BMP180;7865;50.918;4.510;2023-03-24T11:01:41;99795.00;;;16.80
15607;BMP180;7865;50.918;4.510;2023-03-24T11:07:15;99800.00;;;16.60
15607;BMP180;7865;50.918;4.510;2023-03-24T11:12:27;99796.00;;;18.80
15607;BMP180;7865;50.918;4.510;2023-03-24T11:17:29;99802.00;;;17.60
15607;BMP180;7865;50.918;4.510;2023-03-24T11:22:31;99803.00;;;17.30
15607;BMP180;7865;50.918;4.510;2023-03-24T11:27:40;99781.00;;;17.70
15607;BMP180;7865;50.918;4.510;2023-03-24T11:32:45;99799.00;;;19.00
15607;BMP180;7865;50.918;4.510;2023-03-24T11:37:48;99778.00;;;20.30
15607;BMP180;7865;50.918;4.510;2023-03-24T11:42:56;99787.00;;;20.10
15607;BMP180;7865;50.918;4.510;2023-03-24T11:48:00;99789.00;;;20.50
15607;BMP180;7865;50.918;4.510;2023-03-24T11:58:30;99775.00;;;20.10
15607;BMP180;7865;50.918;4.510;2023-03-24T12:09:05;99780.00;;;21.10
15607;BMP180;7865;50.918;4.510;2023-03-24T12:14:09;99764.00;;;22.30
15607;BMP180;7865;50.918;4.510;2023-03-24T12:56:52;99738.00;;;18.00
15607;BMP180;7865;50.918;4.510;2023-03-24T13:07:18;99765.00;;;16.60
15607;BMP180;7865;50.918;4.510;2023-03-24T13:12:26;99774.00;;;16.00
15607;BMP180;7865;50.918;4.510;2023-03-24T13:17:37;99784.00;;;15.10
15607;BMP180;7865;50.918;4.510;2023-03-24T13:22:40;99778.00;;;14.50
15607;BMP180;7865;50.918;4.510;2023-03-24T13:27:44;99771.00;;;16.70
15607;BMP180;7865;50.918;4.510;2023-03-24T13:33:01;99772.00;;;19.40
15607;BMP180;7865;50.918;4.510;2023-03-24T13:38:15;99758.00;;;21.40
15607;BMP180;7865;50.918;4.510;2023-03-24T13:43:21;99755.00;;;21.00
15607;BMP180;7865;50.918;4.510;2023-03-24T13:48:26;99742.00;;;22.70
15607;BMP180;7865;50.918;4.510;2023-03-24T13:53:36;99772.00;;;20.20
15607;BMP180;7865;50.918;4.510;2023-03-24T14:09:27;99719.00;;;18.20
15607;BMP180;7865;50.918;4.510;2023-03-24T14:14:35;99727.00;;;19.60
15607;BMP180;7865;50.918;4.510;2023-03-24T14:19:39;99742.00;;;20.80
15607;BMP180;7865;50.918;4.510;2023-03-24T14:24:45;99750.00;;;16.90
15607;BMP180;7865;50.918;4.510;2023-03-24T14:29:49;99746.00;;;17.20
15607;BMP180;7865;50.918;4.510;2023-03-24T14:34:55;99749.00;;;17.10
15607;BMP180;7865;50.918;4.510;2023-03-24T14:39:58;99744.00;;;17.40
15607;BMP180;7865;50.918;4.510;2023-03-24T14:45:36;99694.00;;;19.20
15607;BMP180;7865;50.918;4.510;2023-03-24T14:50:28;99710.00;;;20.40
15607;BMP180;7865;50.918;4.510;2023-03-24T14:55:30;99748.00;;;19.70
15607;BMP180;7865;50.918;4.510;2023-03-24T15:00:52;99725.00;;;16.90
15607;BMP180;7865;50.918;4.510;2023-03-24T15:06:15;99704.00;;;20.10
15607;BMP180;7865;50.918;4.510;2023-03-24T15:11:21;99713.00;;;21.70
15607;BMP180;7865;50.918;4.510;2023-03-24T15:16:30;99723.00;;;19.80
15607;BMP180;7865;50.918;4.510;2023-03-24T15:26:40;99726.00;;;18.60
15607;BMP180;7865;50.918;4.510;2023-03-24T15:31:42;99695.00;;;20.60
15607;BMP180;7865;50.918;4.510;2023-03-24T15:36:44;99704.00;;;19.40
15607;BMP180;7865;50.918;4.510;2023-03-24T15:41:49;99680.00;;;19.90
15607;BMP180;7865;50.918;4.510;2023-03-24T15:46:57;99682.00;;;20.10
15607;BMP180;7865;50.918;4.510;2023-03-24T15:57:24;99691.00;;;18.00
15607;BMP180;7865;50.918;4.510;2023-03-24T16:02:59;99703.00;;;16.50
15607;BMP180;7865;50.918;4.510;2023-03-24T16:08:05;99692.00;;;15.80
15607;BMP180;7865;50.918;4.510;2023-03-24T16:13:20;99708.00;;;15.00
15607;BMP180;7865;50.918;4.510;2023-03-24T16:18:32;99721.00;;;14.80
15607;BMP180;7865;50.918;4.510;2023-03-24T16:23:34;99709.00;;;14.00
15607;BMP180;7865;50.918;4.510;2023-03-24T16:28:37;99707.00;;;13.80
15607;BMP180;7865;50.918;4.510;2023-03-24T16:33:39;99698.00;;;13.90
15607;BMP180;7865;50.918;4.510;2023-03-24T16:38:41;99700.00;;;13.80
15607;BMP180;7865;50.918;4.510;2023-03-24T16:43:44;99702.00;;;13.70
15607;BMP180;7865;50.918;4.510;2023-03-24T16:48:46;99706.00;;;13.70
15607;BMP180;7865;50.918;4.510;2023-03-24T16:53:49;99711.00;;;13.60
15607;BMP180;7865;50.918;4.510;2023-03-24T16:58:51;99719.00;;;13.40
15607;BMP180;7865;50.918;4.510;2023-03-24T17:03:57;99699.00;;;13.20
15607;BMP180;7865;50.918;4.510;2023-03-24T17:09:00;99730.00;;;12.80
15607;BMP180;7865;50.918;4.510;2023-03-24T17:14:03;99737.00;;;12.60
15607;BMP180;7865;50.918;4.510;2023-03-24T17:19:06;99745.00;;;12.50
15607;BMP180;7865;50.918;4.510;2023-03-24T17:24:09;99764.00;;;12.30
15607;BMP180;7865;50.918;4.510;2023-03-24T17:29:12;99783.00;;;12.10
15607;BMP180;7865;50.918;4.510;2023-03-24T17:34:14;99788.00;;;11.90
15607;BMP180;7865;50.918;4.510;2023-03-24T17:39:21;99786.00;;;11.80
15607;BMP180;7865;50.918;4.510;2023-03-24T17:44:23;99796.00;;;11.70
15607;BMP180;7865;50.918;4.510;2023-03-24T17:49:26;99792.00;;;11.50
15607;BMP180;7865;50.918;4.510;2023-03-24T17:54:28;99795.00;;;11.50
15607;BMP180;7865;50.918;4.510;2023-03-24T17:59:32;99788.00;;;11.30
15607;BMP180;7865;50.918;4.510;2023-03-24T18:04:35;99791.00;;;11.00
15607;BMP180;7865;50.918;4.510;2023-03-24T18:09:37;99801.00;;;10.80
15607;BMP180;7865;50.918;4.510;2023-03-24T18:14:39;99809.00;;;10.70
15607;BMP180;7865;50.918;4.510;2023-03-24T18:19:41;99818.00;;;10.50
15607;BMP180;7865;50.918;4.510;2023-03-24T18:24:43;99809.00;;;10.30
15607;BMP180;7865;50.918;4.510;2023-03-24T18:29:45;99827.00;;;10.20
15607;BMP180;7865;50.918;4.510;2023-03-24T18:34:47;99817.00;;;10.20
15607;BMP180;7865;50.918;4.510;2023-03-24T18:39:49;99812.00;;;10.20
15607;BMP180;7865;50.918;4.510;2023-03-24T18:44:52;99822.00;;;10.10
15607;BMP180;7865;50.918;4.510;2023-03-24T18:49:54;99824.00;;;10.00
15607;BMP180;7865;50.918;4.510;2023-03-24T18:54:56;99827.00;;;9.80
15607;BMP180;7865;50.918;4.510;2023-03-24T18:59:58;99822.00;;;9.60
15607;BMP180;7865;50.918;4.510;2023-03-24T19:05:02;99819.00;;;9.50
15607;BMP180;7865;50.918;4.510;2023-03-24T19:10:05;99826.00;;;9.50
15607;BMP180;7865;50.918;4.510;2023-03-24T19:15:08;99819.00;;;9.50
15607;BMP180;7865;50.918;4.510;2023-03-24T19:20:10;99821.00;;;9.50
15607;BMP180;7865;50.918;4.510;2023-03-24T19:25:13;99824.00;;;9.70
15607;BMP180;7865;50.918;4.510;2023-03-24T19:30:18;99824.00;;;9.80
15607;BMP180;7865;50.918;4.510;2023-03-24T19:35:20;99824.00;;;9.90
15607;BMP180;7865;50.918;4.510;2023-03-24T19:40:22;99819.00;;;10.00
15607;BMP180;7865;50.918;4.510;2023-03-24T19:45:25;99826.00;;;9.90
15607;BMP180;7865;50.918;4.510;2023-03-24T19:50:27;99823.00;;;9.90
15607;BMP180;7865;50.918;4.510;2023-03-24T19:55:29;99822.00;;;9.80
15607;BMP180;7865;50.918;4.510;2023-03-24T20:00:32;99825.00;;;9.80
15607;BMP180;7865;50.918;4.510;2023-03-24T20:05:35;99828.00;;;9.80
15607;BMP180;7865;50.918;4.510;2023-03-24T20:10:37;99826.00;;;9.90
15607;BMP180;7865;50.918;4.510;2023-03-24T20:15:40;99854.00;;;10.00
15607;BMP180;7865;50.918;4.510;2023-03-24T20:20:43;99866.00;;;9.60
15607;BMP180;7865;50.918;4.510;2023-03-24T20:25:45;99870.00;;;9.20
15607;BMP180;7865;50.918;4.510;2023-03-24T20:30:47;99855.00;;;8.90
15607;BMP180;7865;50.918;4.510;2023-03-24T20:35:49;99864.00;;;8.70
15607;BMP180;7865;50.918;4.510;2023-03-24T20:41:10;99851.00;;;8.60
15607;BMP180;7865;50.918;4.510;2023-03-24T20:46:14;99860.00;;;8.60
15607;BMP180;7865;50.918;4.510;2023-03-24T20:51:17;99859.00;;;8.60
15607;BMP180;7865;50.918;4.510;2023-03-24T20:56:20;99852.00;;;8.70
15607;BMP180;7865;50.918;4.510;2023-03-24T21:01:22;99857.00;;;8.70
15607;BMP180;7865;50.918;4.510;2023-03-24T21:06:25;99859.00;;;8.80
15607;BMP180;7865;50.918;4.510;2023-03-24T21:11:27;99851.00;;;8.90
15607;BMP180;7865;50.918;4.510;2023-03-24T21:16:31;99849.00;;;8.90
15607;BMP180;7865;50.918;4.510;2023-03-24T21:21:38;99853.00;;;8.90
15607;BMP180;7865;50.918;4.510;2023-03-24T21:26:43;99849.00;;;8.90
15607;BMP180;7865;50.918;4.510;2023-03-24T21:31:50;99854.00;;;8.80
15607;BMP180;7865;50.918;4.510;2023-03-24T21:36:53;99847.00;;;8.80
15607;BMP180;7865;50.918;4.510;2023-03-24T21:41:56;99844.00;;;8.80
15607;BMP180;7865;50.918;4.510;2023-03-24T21:46:58;99851.00;;;8.90
15607;BMP180;7865;50.918;4.510;2023-03-24T21:52:01;99844.00;;;8.90
15607;BMP180;7865;50.918;4.510;2023-03-24T21:57:05;99831.00;;;8.80
15607;BMP180;7865;50.918;4.510;2023-03-24T22:02:12;99824.00;;;8.80
15607;BMP180;7865;50.918;4.510;2023-03-24T22:07:15;99838.00;;;8.80
15607;BMP180;7865;50.918;4.510;2023-03-24T22:12:23;99820.00;;;8.70
15607;BMP180;7865;50.918;4.510;2023-03-24T22:17:25;99818.00;;;8.80
15607;BMP180;7865;50.918;4.510;2023-03-24T22:22:27;99818.00;;;8.90
15607;BMP180;7865;50.918;4.510;2023-03-24T22:27:29;99820.00;;;9.00
15607;BMP180;7865;50.918;4.510;2023-03-24T22:32:31;99818.00;;;9.00
15607;BMP180;7865;50.918;4.510;2023-03-24T22:37:33;99828.00;;;9.00
15607;BMP180;7865;50.918;4.510;2023-03-24T22:42:36;99826.00;;;8.80
15607;BMP180;7865;50.918;4.510;2023-03-24T22:47:38;99829.00;;;8.60
15607;BMP180;7865;50.918;4.510;2023-03-24T22:52:40;99833.00;;;8.60
15607;BMP180;7865;50.918;4.510;2023-03-24T22:57:42;99826.00;;;8.60
15607;BMP180;7865;50.918;4.510;2023-03-24T23:02:44;99826.00;;;8.60
15607;BMP180;7865;50.918;4.510;2023-03-24T23:07:46;99835.00;;;8.70
15607;BMP180;7865;50.918;4.510;2023-03-24T23:12:49;99825.00;;;8.70
15607;BMP180;7865;50.918;4.510;2023-03-24T23:17:53;99830.00;;;8.60
15607;BMP180;7865;50.918;4.510;2023-03-24T23:22:55;99837.00;;;8.50
15607;BMP180;7865;50.918;4.510;2023-03-24T23:27:58;99842.00;;;8.60
15607;BMP180;7865;50.918;4.510;2023-03-24T23:33:00;99836.00;;;8.70
15607;BMP180;7865;50.918;4.510;2023-03-24T23:38:04;99839.00;;;8.80
15607;BMP180;7865;50.918;4.510;2023-03-24T23:43:07;99832.00;;;8.80
15607;BMP180;7865;50.918;4.510;2023-03-24T23:48:09;99836.00;;;8.80
15607;BMP180;7865;50.918;4.510;2023-03-24T23:53:11;99841.00;;;8.80
15607;BMP180;7865;50.918;4.510;2023-03-24T23:58:13;99836.00;;;8.70
